»·PEaware :: N71K KSMO-KSBA

N71K :: KSMO-KSBA

FLIGHT INFORMATION

Flight Status: Arrived
Operator: Privately registered:
United States
More flights under this callsign
Pilot: Ryan C. (15122)
Aircraft: CESSNA 177 CARDINAL
(C177)
More flights by this aircraft type
Origin: KSMO Santa Monica Mun
United States
Destination: KSBA Santa Barbara Mun
United States
More flights between these airports :: More routes between these airports
Route: SMO V107 SADDE V299 VTU VTU282R KWANG
File this flight plan on PilotEdge
Remarks: SMOP38
Altitude:
(Current/Filed)
6,000ft
Speed:
(Current/Filed)
140kts
Departed: 26-Jan-19 03:57 PM
Arrived: 26-Jan-19 04:34 PM
Distance/Time
Traveled:
73nm/0:37
Distance/Time
To Go:
Arrived

Flight Plot

Page will automatically refresh every two minutes.


Map Options




Map Legend


Flown Route
Filed Route
Departure Airport
Arrival Airport
Navaid (VOR, NDB)
Fix

Horizontal Profiles

Position Reports

Time Latitude Longitude Heading Altitude Ground
Speed
26-Jan-19 15:30 34.016688 -118.452132 135 135ft 0kts
26-Jan-19 15:31 34.016688 -118.452132 135 135ft 0kts
26-Jan-19 15:32 34.016688 -118.452132 135 135ft 0kts
26-Jan-19 15:33 34.016688 -118.452132 135 135ft 0kts
26-Jan-19 15:34 34.016688 -118.452132 135 135ft 0kts
26-Jan-19 15:35 34.016688 -118.452132 135 135ft 0kts
26-Jan-19 15:36 34.016688 -118.452132 135 135ft 0kts
26-Jan-19 15:37 34.016688 -118.452132 135 135ft 0kts
26-Jan-19 15:38 34.016688 -118.452132 135 135ft 0kts
26-Jan-19 15:39 34.016688 -118.452132 135 135ft 0kts
26-Jan-19 15:40 34.016688 -118.452132 135 135ft 0kts
26-Jan-19 15:41 34.016688 -118.452132 135 135ft 0kts
26-Jan-19 15:42 34.016688 -118.452132 135 135ft 0kts
26-Jan-19 15:43 34.016688 -118.452132 135 135ft 0kts
26-Jan-19 15:44 34.016688 -118.452132 135 135ft 0kts
26-Jan-19 15:45 34.016688 -118.452132 135 135ft 0kts
26-Jan-19 15:46 34.016688 -118.452132 135 135ft 0kts
26-Jan-19 15:47 34.016612 -118.452044 138 135ft 0kts
26-Jan-19 15:48 34.017678 -118.450245 45 135ft 9kts
26-Jan-19 15:49 34.019940 -118.447564 45 135ft 9kts
26-Jan-19 15:50 34.021134 -118.446173 102 135ft 0kts
26-Jan-19 15:51 34.021134 -118.446173 102 135ft 0kts
26-Jan-19 15:52 34.020996 -118.446070 145 135ft 1kts
26-Jan-19 15:53 34.020995 -118.446069 146 135ft 0kts
26-Jan-19 15:54 34.020995 -118.446069 146 135ft 0kts
26-Jan-19 15:55 34.020995 -118.446069 146 135ft 0kts
26-Jan-19 15:56 34.017655 -118.449113 224 140ft 72kts
26-Jan-19 15:57 34.001732 -118.468994 226 1112ft 84kts
26-Jan-19 15:58 33.988085 -118.490352 264 2124ft 84kts
26-Jan-19 15:59 33.986886 -118.517789 265 3113ft 82kts
26-Jan-19 16:00 33.986293 -118.544772 280 4067ft 80kts
26-Jan-19 16:01 33.993817 -118.573278 283 4851ft 94kts
26-Jan-19 16:02 34.002005 -118.604304 284 5659ft 99kts
26-Jan-19 16:03 34.011380 -118.639931 287 6027ft 137kts
26-Jan-19 16:04 34.022679 -118.682305 288 6018ft 150kts
26-Jan-19 16:05 34.035100 -118.730716 288 6020ft 154kts
26-Jan-19 16:06 34.047687 -118.780369 291 6017ft 154kts
26-Jan-19 16:07 34.060266 -118.829390 292 6016ft 152kts
26-Jan-19 16:08 34.072661 -118.877568 294 6022ft 149kts
26-Jan-19 16:09 34.084935 -118.925431 293 6009ft 148kts
26-Jan-19 16:10 34.096991 -118.972430 292 6005ft 148kts
26-Jan-19 16:11 34.109056 -119.019635 292 6005ft 149kts
26-Jan-19 16:12 34.123415 -119.065209 303 6012ft 146kts
26-Jan-19 16:13 34.141696 -119.108649 303 6012ft 143kts
26-Jan-19 16:14 34.159496 -119.150945 302 6014ft 141kts
26-Jan-19 16:15 34.177099 -119.192846 301 6015ft 139kts
26-Jan-19 16:16 34.194279 -119.233768 301 6017ft 137kts
26-Jan-19 16:17 34.211442 -119.274661 299 6018ft 136kts
26-Jan-19 16:18 34.228176 -119.315621 298 6018ft 136kts
26-Jan-19 16:19 34.244797 -119.356839 299 6018ft 136kts
26-Jan-19 16:20 34.261789 -119.397671 299 6019ft 136kts
26-Jan-19 16:21 34.279651 -119.440498 299 5330ft 146kts
26-Jan-19 16:22 34.297412 -119.483157 297 4429ft 141kts
26-Jan-19 16:23 34.314238 -119.525291 294 3985ft 137kts
26-Jan-19 16:24 34.329422 -119.567536 293 3986ft 136kts
26-Jan-19 16:25 34.344466 -119.609432 292 3987ft 137kts
26-Jan-19 16:26 34.359900 -119.652508 290 3987ft 142kts
26-Jan-19 16:27 34.382441 -119.690337 306 3560ft 137kts
26-Jan-19 16:28 34.404158 -119.727036 307 3016ft 132kts
26-Jan-19 16:29 34.423933 -119.754832 307 2023ft 91kts
26-Jan-19 16:30 34.429025 -119.781769 266 1102ft 75kts
26-Jan-19 16:31 34.428416 -119.807346 267 586ft 77kts
26-Jan-19 16:33 34.427973 -119.830830 266 111ft 67kts
26-Jan-19 16:34 34.428649 -119.841916 345 15ft 4kts
26-Jan-19 16:35 34.428658 -119.841918 345 15ft 0kts
26-Jan-19 16:36 34.428658 -119.841918 345 15ft 0kts
26-Jan-19 16:37 34.428658 -119.841918 345 15ft 0kts
26-Jan-19 16:38 34.429261 -119.842100 347 15ft 7kts
26-Jan-19 16:39 34.431090 -119.838435 70 15ft 15kts
26-Jan-19 16:40 34.432642 -119.835918 68 15ft 0kts

Navigation Log

Ident Type
Flight plan parsing failed, navigation log unavailable